Time;durP1;ratioP1;P1;durP2;ratioP2;P2;SDS_P1;SDS_P2;PMS_P1;PMS_P2;Temp;Humidity;BMP_temperature;BMP_pressure;BME280_temperature;BME280_humidity;BME280_pressure;Samples;Min_cycle;Max_cycle;Signal;HPM_P1;HPM_P2
2022/10/21 00:00:53;;;;;;;0.30;0.30;;;14.40;99.90;;;;;;5019523;28;20026;-77
2022/10/21 00:03:20;;;;;;;0.10;0.10;;;14.40;99.90;;;;;;5019333;28;20034;-77
2022/10/21 00:05:46;;;;;;;0.03;0.03;;;14.40;99.90;;;;;;4986052;28;20026;-77
2022/10/21 00:08:12;;;;;;;0.00;0.00;;;14.50;99.90;;;;;;4985567;28;20029;-77
2022/10/21 00:10:37;;;;;;;0.10;0.10;;;14.50;99.90;;;;;;5001382;28;20050;-77
2022/10/21 00:13:03;;;;;;;0.13;0.13;;;14.60;99.90;;;;;;5000663;28;20037;-77
2022/10/21 00:15:29;;;;;;;0.10;0.10;;;14.60;99.90;;;;;;4984943;28;20026;-77
2022/10/21 00:17:54;;;;;;;0.10;0.10;;;14.70;99.90;;;;;;4985487;28;20036;-77
2022/10/21 00:20:20;;;;;;;0.47;0.30;;;14.60;99.90;;;;;;5001330;28;20018;-77
2022/10/21 00:22:46;;;;;;;0.03;0.03;;;14.50;99.90;;;;;;5001666;28;20358;-77
2022/10/21 00:25:12;;;;;;;0.10;0.10;;;14.60;99.90;;;;;;5018865;28;20488;-76
2022/10/21 00:27:38;;;;;;;0.08;0.08;;;14.60;99.90;;;;;;5019508;28;20037;-77
2022/10/21 00:30:05;;;;;;;0.10;0.10;;;14.60;99.90;;;;;;4985657;28;20033;-77
2022/10/21 00:32:31;;;;;;;0.10;0.10;;;14.60;99.90;;;;;;5018859;28;20045;-77
2022/10/21 00:34:57;;;;;;;0.10;0.10;;;14.70;99.90;;;;;;5001932;28;20034;-76
2022/10/21 00:37:22;;;;;;;0.10;0.10;;;14.80;99.90;;;;;;5019219;28;20022;-77
2022/10/21 00:39:48;;;;;;;0.10;0.10;;;14.90;99.90;;;;;;5019560;28;20088;-77
2022/10/21 00:42:17;;;;;;;0.20;0.20;;;14.80;99.90;;;;;;5019318;28;20388;-77
2022/10/21 00:45:06;;;;;;;1.65;0.88;;;14.70;99.90;;;;;;5018396;28;20022;-77
2022/10/21 00:47:49;;;;;;;1.63;1.52;;;14.70;99.90;;;;;;5017917;28;20055;-77
2022/10/21 00:50:27;;;;;;;0.40;0.40;;;14.60;99.90;;;;;;4983889;28;20038;-76
2022/10/21 00:52:56;;;;;;;0.40;0.38;;;14.50;99.90;;;;;;5000303;28;20114;-77
2022/10/21 00:55:22;;;;;;;1.25;0.55;;;14.50;99.90;;;;;;5017420;28;20062;-77
2022/10/21 00:57:50;;;;;;;0.20;0.20;;;14.50;99.90;;;;;;5000052;28;20033;-77
2022/10/21 01:00:15;;;;;;;0.85;0.85;;;14.50;99.90;;;;;;4999740;28;20022;-76
2022/10/21 01:02:41;;;;;;;0.28;0.28;;;14.50;99.90;;;;;;4999230;28;20136;-77
2022/10/21 01:05:09;;;;;;;0.30;0.30;;;14.60;99.90;;;;;;5043097;23;20574;-77
2022/10/21 01:07:35;;;;;;;0.20;0.20;;;14.60;99.90;;;;;;5039439;28;20032;-77
2022/10/21 01:10:02;;;;;;;0.10;0.10;;;14.70;99.90;;;;;;5022040;28;20026;-77
2022/10/21 01:12:47;;;;;;;0.10;0.10;;;14.70;99.90;;;;;;5005917;28;20045;-77
2022/10/21 01:15:37;;;;;;;0.10;0.10;;;14.80;99.90;;;;;;5021760;28;20026;-77
2022/10/21 01:18:41;;;;;;;0.10;0.10;;;14.90;99.90;;;;;;5039971;28;20032;-77
2022/10/21 01:21:34;;;;;;;0.10;0.10;;;15.00;99.90;;;;;;5021901;28;20028;-78
2022/10/21 01:24:18;;;;;;;0.10;0.10;;;15.00;99.90;;;;;;5039553;28;20075;-78
2022/10/21 01:27:17;;;;;;;0.10;0.10;;;15.10;99.90;;;;;;5005166;28;20033;-77
2022/10/21 01:30:12;;;;;;;0.10;0.10;;;15.10;99.90;;;;;;5022035;28;20489;-77
2022/10/21 01:33:02;;;;;;;0.10;0.10;;;15.20;99.90;;;;;;5039001;28;20044;-78
2022/10/21 01:35:54;;;;;;;0.10;0.10;;;15.20;99.90;;;;;;5021881;28;20041;-78
2022/10/21 01:38:47;;;;;;;0.10;0.10;;;15.20;99.90;;;;;;5022774;28;20044;-78
2022/10/21 01:41:27;;;;;;;0.10;0.10;;;15.30;99.90;;;;;;5022720;28;20032;-78
2022/10/21 01:44:11;;;;;;;0.10;0.10;;;15.40;99.90;;;;;;5023048;28;20085;-78
2022/10/21 01:46:48;;;;;;;0.00;0.00;;;15.40;99.90;;;;;;5022609;28;20029;-78
2022/10/21 01:49:25;;;;;;;0.00;0.00;;;15.30;99.90;;;;;;5040604;28;20037;-77
2022/10/21 01:51:53;;;;;;;0.10;0.10;;;15.40;99.90;;;;;;5022339;28;20025;-78
2022/10/21 01:54:25;;;;;;;0.10;0.10;;;15.40;99.90;;;;;;5022403;28;20053;-77
2022/10/21 01:56:52;;;;;;;0.10;0.10;;;15.40;99.90;;;;;;5022209;28;20496;-78
2022/10/21 01:59:20;;;;;;;0.10;0.10;;;15.30;99.90;;;;;;5022513;28;20033;-78
2022/10/21 02:01:47;;;;;;;0.10;0.10;;;15.20;99.90;;;;;;5040096;28;20420;-78
2022/10/21 02:04:15;;;;;;;0.10;0.10;;;15.30;99.90;;;;;;5021825;28;20032;-78
2022/10/21 02:06:41;;;;;;;0.10;0.10;;;15.30;99.90;;;;;;5022030;28;20030;-77
2022/10/21 02:09:06;;;;;;;0.10;0.10;;;15.10;99.90;;;;;;5039537;28;20044;-77
2022/10/21 02:11:36;;;;;;;0.10;0.10;;;15.00;99.90;;;;;;5042615;28;20101;-78
2022/10/21 02:14:09;;;;;;;0.10;0.10;;;15.00;99.90;;;;;;5025867;28;20028;-78
2022/10/21 02:16:38;;;;;;;0.13;0.13;;;15.10;99.90;;;;;;5025570;28;20432;-77
2022/10/21 02:19:15;;;;;;;0.17;0.17;;;15.10;99.90;;;;;;5025774;28;20017;-78
2022/10/21 02:21:44;;;;;;;0.10;0.10;;;15.20;99.90;;;;;;5025534;28;20048;-78
2022/10/21 02:24:20;;;;;;;0.00;0.00;;;15.10;99.90;;;;;;5009718;28;20481;-77
2022/10/21 02:26:46;;;;;;;0.10;0.10;;;15.00;99.90;;;;;;5042917;28;20017;-77
2022/10/21 02:29:13;;;;;;;0.10;0.10;;;15.00;99.90;;;;;;5042886;28;20101;-77
2022/10/21 02:31:39;;;;;;;0.10;0.10;;;15.00;99.90;;;;;;5024689;28;20026;-78
2022/10/21 02:34:40;;;;;;;0.00;0.00;;;14.90;99.90;;;;;;5009160;28;20018;-77
2022/10/21 02:37:06;;;;;;;0.10;0.10;;;14.90;99.90;;;;;;5024506;28;20036;-78
2022/10/21 02:39:46;;;;;;;0.10;0.10;;;15.00;99.90;;;;;;5008839;28;20026;-77
2022/10/21 02:42:18;;;;;;;0.10;0.10;;;15.10;99.90;;;;;;5024065;28;20080;-78
2022/10/21 02:44:43;;;;;;;0.10;0.10;;;15.00;99.90;;;;;;5024730;28;20029;-77
2022/10/21 02:47:09;;;;;;;0.10;0.10;;;15.00;99.90;;;;;;5024600;28;20036;-78
2022/10/21 02:49:35;;;;;;;0.10;0.10;;;14.90;99.90;;;;;;5008509;28;20036;-78
2022/10/21 02:52:01;;;;;;;0.10;0.10;;;14.90;99.90;;;;;;5042733;28;20036;-77
2022/10/21 02:54:26;;;;;;;0.00;0.00;;;14.90;99.90;;;;;;5041590;28;20064;-78
2022/10/21 02:56:52;;;;;;;0.10;0.10;;;14.90;99.90;;;;;;5023931;28;20029;-77
2022/10/21 02:59:18;;;;;;;0.10;0.10;;;15.00;99.90;;;;;;5008398;28;20023;-77
2022/10/21 03:01:44;;;;;;;0.10;0.10;;;15.00;99.90;;;;;;5008169;28;20029;-77
2022/10/21 03:04:09;;;;;;;0.08;0.08;;;15.10;99.90;;;;;;5024056;28;20061;-78
2022/10/21 03:06:35;;;;;;;0.10;0.10;;;15.10;99.90;;;;;;5024273;28;20045;-77
2022/10/21 03:09:01;;;;;;;0.08;0.08;;;14.90;99.90;;;;;;5024343;28;20022;-78
2022/10/21 03:11:27;;;;;;;0.08;0.08;;;14.70;99.90;;;;;;5042314;28;20053;-77
2022/10/21 03:13:52;;;;;;;0.00;0.00;;;14.80;99.90;;;;;;5024437;28;20500;-77
2022/10/21 03:16:18;;;;;;;0.03;0.03;;;14.80;99.90;;;;;;5007799;28;20052;-77
2022/10/21 03:18:44;;;;;;;0.00;0.00;;;14.80;99.90;;;;;;5042420;28;20089;-78
2022/10/21 03:21:10;;;;;;;0.10;0.10;;;14.80;99.90;;;;;;5023990;28;20099;-78
2022/10/21 03:23:35;;;;;;;0.30;0.30;;;14.80;99.90;;;;;;5022931;28;20036;-78
2022/10/21 03:26:01;;;;;;;0.93;0.45;;;14.80;99.90;;;;;;5041936;28;20028;-77
2022/10/21 03:28:29;;;;;;;0.10;0.10;;;14.70;99.90;;;;;;5023512;28;20065;-77
2022/10/21 03:30:55;;;;;;;0.10;0.10;;;14.80;99.90;;;;;;5041873;28;20025;-78
2022/10/21 03:33:20;;;;;;;0.20;0.20;;;14.80;99.90;;;;;;5024478;28;20067;-77
2022/10/21 03:35:46;;;;;;;0.30;0.30;;;14.80;99.90;;;;;;5024082;28;20029;-78
2022/10/21 03:38:12;;;;;;;0.10;0.10;;;14.90;99.90;;;;;;5041791;28;20029;-78
2022/10/21 03:40:38;;;;;;;0.10;0.10;;;14.80;99.90;;;;;;5023556;28;20044;-77
2022/10/21 03:43:03;;;;;;;0.10;0.10;;;14.80;99.90;;;;;;5041867;28;20022;-77
2022/10/21 03:45:29;;;;;;;0.10;0.10;;;14.70;99.90;;;;;;5041602;28;20420;-78
2022/10/21 03:47:55;;;;;;;0.10;0.10;;;14.90;99.90;;;;;;5024268;28;20387;-78
2022/10/21 03:50:21;;;;;;;0.10;0.10;;;14.90;99.90;;;;;;5008032;28;20025;-77
2022/10/21 03:52:47;;;;;;;0.20;0.20;;;15.00;99.90;;;;;;5007989;28;20030;-77
2022/10/21 03:55:13;;;;;;;0.10;0.10;;;15.00;99.90;;;;;;5023490;28;20040;-78
2022/10/21 03:57:39;;;;;;;0.10;0.10;;;15.00;99.90;;;;;;5024111;28;20054;-78
2022/10/21 04:00:05;;;;;;;0.10;0.10;;;14.90;99.90;;;;;;5007983;28;20144;-77
2022/10/21 04:02:31;;;;;;;0.10;0.10;;;14.90;99.90;;;;;;5023824;28;20037;-78
2022/10/21 04:04:57;;;;;;;0.10;0.10;;;14.90;99.90;;;;;;5041169;28;20039;-77
2022/10/21 04:07:22;;;;;;;0.10;0.10;;;14.90;99.90;;;;;;5040979;28;20104;-78
2022/10/21 04:09:48;;;;;;;0.10;0.10;;;14.90;99.90;;;;;;5007100;28;20022;-78
2022/10/21 04:12:14;;;;;;;0.20;0.20;;;14.80;99.90;;;;;;5023040;28;20025;-77
2022/10/21 04:14:40;;;;;;;0.10;0.10;;;14.80;99.90;;;;;;5006183;28;20029;-77
2022/10/21 04:17:05;;;;;;;0.10;0.10;;;14.80;99.90;;;;;;5023056;28;20029;-77
2022/10/21 04:19:31;;;;;;;0.10;0.10;;;14.80;99.90;;;;;;5006845;28;20026;-77
2022/10/21 04:21:57;;;;;;;0.10;0.10;;;14.80;99.90;;;;;;5023470;28;20405;-78
2022/10/21 04:24:23;;;;;;;0.10;0.10;;;14.80;99.90;;;;;;5023630;28;20025;-78
2022/10/21 04:26:48;;;;;;;0.10;0.10;;;14.80;99.90;;;;;;5006688;28;20492;-77
2022/10/21 04:29:14;;;;;;;0.10;0.10;;;14.80;99.90;;;;;;5022381;28;20024;-77
2022/10/21 04:31:40;;;;;;;0.10;0.10;;;14.70;99.90;;;;;;5023719;28;20032;-78
2022/10/21 04:34:05;;;;;;;0.20;0.20;;;14.70;99.90;;;;;;5022029;28;20056;-78
2022/10/21 04:36:31;;;;;;;0.10;0.10;;;14.60;99.90;;;;;;5022666;28;20026;-77
2022/10/21 04:38:57;;;;;;;0.10;0.10;;;14.70;99.90;;;;;;5023044;28;20032;-78
2022/10/21 04:41:23;;;;;;;0.20;0.20;;;14.60;99.90;;;;;;5039744;28;20030;-77
2022/10/21 04:43:48;;;;;;;0.10;0.10;;;14.50;99.90;;;;;;5022891;28;20100;-77
2022/10/21 04:46:15;;;;;;;0.10;0.10;;;14.20;99.90;;;;;;5021319;28;20028;-77
2022/10/21 04:48:42;;;;;;;0.00;0.00;;;14.10;99.90;;;;;;5040183;28;20026;-77
2022/10/21 04:51:08;;;;;;;0.10;0.10;;;14.00;99.90;;;;;;5022061;28;20504;-78
2022/10/21 04:53:34;;;;;;;0.10;0.10;;;14.00;99.90;;;;;;5023096;28;20035;-78
2022/10/21 04:55:59;;;;;;;0.10;0.10;;;14.10;99.90;;;;;;5021984;28;20461;-78
2022/10/21 04:58:25;;;;;;;0.10;0.10;;;14.20;99.90;;;;;;5040523;28;20060;-78
2022/10/21 05:00:51;;;;;;;0.10;0.10;;;14.20;99.90;;;;;;5040369;28;20021;-77
2022/10/21 05:03:18;;;;;;;2.72;0.93;;;14.20;99.90;;;;;;5005930;28;20052;-78
2022/10/21 05:05:44;;;;;;;0.10;0.10;;;14.30;99.90;;;;;;5039215;28;20092;-77
2022/10/21 05:08:10;;;;;;;0.10;0.10;;;14.00;99.90;;;;;;5021701;28;20029;-78
2022/10/21 05:10:36;;;;;;;0.10;0.10;;;14.00;99.90;;;;;;5022470;28;20048;-78
2022/10/21 05:13:01;;;;;;;0.10;0.10;;;14.00;99.90;;;;;;5022563;28;20029;-78
2022/10/21 05:15:27;;;;;;;0.10;0.10;;;14.10;99.90;;;;;;5038668;28;20067;-77
2022/10/21 05:17:53;;;;;;;0.30;0.30;;;14.10;99.90;;;;;;5005711;28;20033;-77
2022/10/21 05:20:19;;;;;;;0.10;0.10;;;14.10;99.90;;;;;;5039419;28;20040;-78
2022/10/21 05:22:45;;;;;;;0.10;0.10;;;14.10;99.90;;;;;;5021372;28;20026;-77
2022/10/21 05:25:11;;;;;;;0.10;0.10;;;14.10;99.90;;;;;;5039005;28;20032;-78
2022/10/21 05:27:37;;;;;;;0.10;0.10;;;14.10;99.90;;;;;;5039121;28;20451;-77
2022/10/21 05:30:04;;;;;;;0.20;0.20;;;14.10;99.90;;;;;;5039906;28;20049;-77
2022/10/21 05:32:30;;;;;;;0.10;0.10;;;14.10;99.90;;;;;;5021732;28;20025;-77
2022/10/21 05:34:55;;;;;;;0.10;0.10;;;14.10;99.90;;;;;;5003840;28;20060;-78
2022/10/21 05:37:21;;;;;;;0.10;0.10;;;14.10;99.90;;;;;;5057157;28;20029;-77
2022/10/21 05:39:47;;;;;;;1.65;0.85;;;14.10;99.90;;;;;;5021281;28;20017;-77
2022/10/21 05:42:13;;;;;;;32.72;10.57;;;14.00;99.90;;;;;;5004636;28;20017;-78
2022/10/21 05:44:38;;;;;;;0.20;0.20;;;13.90;99.90;;;;;;5021154;28;20101;-77
2022/10/21 05:47:04;;;;;;;0.10;0.10;;;13.80;99.90;;;;;;5042686;28;20370;-77
2022/10/21 05:49:30;;;;;;;0.10;0.10;;;13.80;99.90;;;;;;5043219;28;20036;-77
2022/10/21 05:51:56;;;;;;;0.10;0.10;;;13.80;99.90;;;;;;5025151;28;20049;-77
2022/10/21 05:54:21;;;;;;;0.00;0.00;;;13.80;99.90;;;;;;5024831;28;20025;-77
2022/10/21 05:56:47;;;;;;;0.10;0.10;;;13.90;99.90;;;;;;5025632;28;20401;-77
2022/10/21 05:59:13;;;;;;;0.08;0.08;;;14.00;99.90;;;;;;5042954;28;20018;-78
2022/10/21 06:01:39;;;;;;;0.22;0.20;;;14.10;99.90;;;;;;5024920;28;20025;-77
2022/10/21 06:04:06;;;;;;;0.20;0.20;;;13.90;99.90;;;;;;5007561;28;20210;-77
2022/10/21 06:06:32;;;;;;;0.10;0.10;;;13.90;99.90;;;;;;5008525;28;20025;-77
2022/10/21 06:08:58;;;;;;;0.20;0.20;;;13.90;99.90;;;;;;5041990;28;20550;-77
2022/10/21 06:11:23;;;;;;;0.10;0.10;;;13.90;99.90;;;;;;5044432;28;20063;-77
2022/10/21 06:13:49;;;;;;;3.13;2.88;;;14.00;99.90;;;;;;5063469;28;20025;-77
2022/10/21 06:16:15;;;;;;;0.10;0.10;;;14.00;99.90;;;;;;5063119;28;20082;-78
2022/10/21 06:18:42;;;;;;;0.10;0.10;;;14.10;99.90;;;;;;5044517;28;20115;-78
2022/10/21 06:21:08;;;;;;;0.10;0.10;;;14.10;99.90;;;;;;5063257;28;20017;-77
2022/10/21 06:23:34;;;;;;;0.20;0.20;;;14.00;99.90;;;;;;5052217;28;20049;-78
2022/10/21 06:26:10;;;;;;;0.20;0.20;;;14.00;99.90;;;;;;5048558;28;20025;-77
2022/10/21 06:28:37;;;;;;;0.10;0.10;;;14.00;99.90;;;;;;5020271;28;20032;-77
2022/10/21 06:31:03;;;;;;;0.00;0.00;;;13.90;99.90;;;;;;5055425;28;20029;-77
2022/10/21 06:33:29;;;;;;;0.10;0.10;;;13.90;99.90;;;;;;5037472;28;20068;-77
2022/10/21 06:35:55;;;;;;;0.10;0.10;;;13.80;99.90;;;;;;5017062;28;20493;-77
2022/10/21 06:38:22;;;;;;;0.10;0.10;;;13.80;99.90;;;;;;5017628;28;20111;-77
2022/10/21 06:40:48;;;;;;;0.08;0.08;;;13.80;99.90;;;;;;5025297;28;20017;-77
2022/10/21 06:43:14;;;;;;;4.68;4.43;;;13.90;99.90;;;;;;5036656;28;20389;-77
2022/10/21 06:45:40;;;;;;;0.10;0.10;;;13.90;99.90;;;;;;5015401;28;20026;-77
2022/10/21 06:48:06;;;;;;;0.75;0.68;;;14.00;99.90;;;;;;5015937;28;20044;-77
2022/10/21 06:50:32;;;;;;;0.10;0.10;;;14.10;99.90;;;;;;5033757;28;20417;-77
2022/10/21 06:52:58;;;;;;;0.10;0.10;;;13.90;99.90;;;;;;5016685;28;20048;-77
2022/10/21 06:55:24;;;;;;;0.68;0.68;;;14.00;99.90;;;;;;5049258;28;20025;-77
2022/10/21 06:57:50;;;;;;;0.10;0.10;;;14.10;99.90;;;;;;5036283;28;20315;-77
2022/10/21 07:00:15;;;;;;;0.10;0.10;;;14.10;99.90;;;;;;5042677;28;20040;-77
2022/10/21 07:02:41;;;;;;;0.30;0.30;;;14.10;99.90;;;;;;5036563;28;20032;-77
2022/10/21 07:05:08;;;;;;;0.47;0.47;;;14.00;99.90;;;;;;5048863;22;20504;-76
2022/10/21 07:07:34;;;;;;;0.30;0.30;;;13.90;99.90;;;;;;4998333;28;20032;-77
2022/10/21 07:09:59;;;;;;;0.20;0.20;;;13.80;99.90;;;;;;5031368;28;20032;-77
2022/10/21 07:12:26;;;;;;;0.10;0.10;;;13.80;99.90;;;;;;5032809;28;20026;-76
2022/10/21 07:14:55;;;;;;;0.10;0.10;;;13.90;99.90;;;;;;5034176;28;20053;-76
2022/10/21 07:17:21;;;;;;;0.13;0.13;;;13.90;99.90;;;;;;5014631;28;20025;-76
2022/10/21 07:19:47;;;;;;;0.40;0.40;;;13.80;99.90;;;;;;5014279;28;20029;-77
2022/10/21 07:22:14;;;;;;;0.70;0.70;;;13.90;99.90;;;;;;4980387;28;20026;-77
2022/10/21 07:24:40;;;;;;;0.10;0.10;;;14.00;99.90;;;;;;4996778;28;20117;-77
2022/10/21 07:27:05;;;;;;;0.10;0.10;;;13.90;99.90;;;;;;5014000;28;20068;-77
2022/10/21 07:29:31;;;;;;;0.52;0.52;;;14.00;99.90;;;;;;5014115;28;20421;-77
2022/10/21 07:31:57;;;;;;;0.95;0.75;;;14.10;99.90;;;;;;4996396;28;20166;-73
2022/10/21 07:34:24;;;;;;;0.13;0.13;;;14.10;99.90;;;;;;4996102;28;20029;-74
2022/10/21 07:36:53;;;;;;;0.10;0.10;;;14.00;99.90;;;;;;4995503;28;20026;-74
2022/10/21 07:39:23;;;;;;;0.10;0.10;;;14.10;99.90;;;;;;5013749;28;20057;-74
2022/10/21 07:41:52;;;;;;;0.10;0.10;;;14.20;99.90;;;;;;4980195;28;20021;-76
2022/10/21 07:44:19;;;;;;;0.17;0.17;;;14.10;99.90;;;;;;5013680;28;20401;-76
2022/10/21 07:46:46;;;;;;;0.10;0.10;;;14.20;99.90;;;;;;5013783;28;20509;-76
2022/10/21 07:49:12;;;;;;;0.57;0.57;;;14.20;99.90;;;;;;5006835;28;20032;-77
2022/10/21 07:51:39;;;;;;;0.00;0.00;;;14.30;99.90;;;;;;5033465;28;20151;-76
2022/10/21 07:54:06;;;;;;;0.32;0.32;;;14.20;99.90;;;;;;5015492;28;20043;-76
2022/10/21 07:56:35;;;;;;;0.10;0.10;;;14.30;99.90;;;;;;5015573;28;20021;-78
2022/10/21 07:59:01;;;;;;;0.55;0.47;;;14.40;99.90;;;;;;5014945;28;20049;-77
2022/10/21 08:01:28;;;;;;;0.70;0.70;;;14.50;99.90;;;;;;5015428;28;20036;-76
2022/10/21 08:03:55;;;;;;;0.10;0.10;;;14.60;99.90;;;;;;4999041;28;20026;-77
2022/10/21 08:06:23;;;;;;;0.10;0.10;;;14.70;99.90;;;;;;5033151;28;20029;-76
2022/10/21 08:08:49;;;;;;;4.97;1.55;;;14.70;99.90;;;;;;5013192;28;20064;-76
2022/10/21 08:11:23;;;;;;;0.20;0.20;;;14.70;99.90;;;;;;4997519;28;20057;-77
2022/10/21 08:13:49;;;;;;;0.10;0.10;;;14.50;99.90;;;;;;5014277;28;20036;-76
2022/10/21 08:16:15;;;;;;;0.10;0.10;;;14.50;99.90;;;;;;5031831;28;20029;-77
2022/10/21 08:18:41;;;;;;;0.10;0.10;;;14.60;99.90;;;;;;5014918;28;20029;-76
2022/10/21 08:21:07;;;;;;;0.10;0.10;;;14.80;99.90;;;;;;5032808;28;20421;-76
2022/10/21 08:23:33;;;;;;;0.10;0.10;;;14.90;99.90;;;;;;5015357;28;20022;-77
2022/10/21 08:26:00;;;;;;;0.10;0.10;;;15.00;99.90;;;;;;5032850;28;20033;-77
2022/10/21 08:28:27;;;;;;;0.10;0.10;;;15.00;99.90;;;;;;5033018;28;20420;-76
2022/10/21 08:31:02;;;;;;;0.25;0.25;;;15.00;99.90;;;;;;5032932;28;20048;-76
2022/10/21 08:33:28;;;;;;;0.10;0.10;;;14.90;99.90;;;;;;5015121;28;20026;-76
2022/10/21 08:35:54;;;;;;;3.97;1.35;;;14.70;99.90;;;;;;5014964;28;20056;-76
2022/10/21 08:38:20;;;;;;;0.10;0.10;;;14.60;99.90;;;;;;5032576;28;20464;-76
2022/10/21 08:40:47;;;;;;;0.10;0.10;;;14.50;99.90;;;;;;5014986;28;20469;-77
2022/10/21 08:43:23;;;;;;;0.00;0.00;;;14.60;99.90;;;;;;5014850;28;20084;-77
2022/10/21 08:46:01;;;;;;;0.03;0.03;;;14.60;99.90;;;;;;5032504;28;20173;-77
2022/10/21 08:48:38;;;;;;;0.10;0.10;;;14.60;99.90;;;;;;5032677;28;20029;-77
2022/10/21 08:51:06;;;;;;;0.10;0.10;;;14.80;99.90;;;;;;5032512;28;20036;-77
2022/10/21 08:53:38;;;;;;;1.65;0.50;;;15.00;99.90;;;;;;5032752;28;20053;-77
2022/10/21 08:56:13;;;;;;;0.20;0.20;;;15.10;99.90;;;;;;5014525;28;20112;-76
2022/10/21 08:58:39;;;;;;;0.10;0.10;;;15.00;99.90;;;;;;4998091;28;20029;-76
2022/10/21 09:01:08;;;;;;;0.28;0.28;;;15.10;99.90;;;;;;5014355;28;20404;-76
2022/10/21 09:04:09;;;;;;;0.10;0.10;;;15.10;99.90;;;;;;5014693;28;20489;-76
2022/10/21 09:07:10;;;;;;;0.10;0.10;;;15.20;99.90;;;;;;5014300;28;20025;-77
2022/10/21 09:09:58;;;;;;;0.10;0.10;;;15.40;99.90;;;;;;5014321;28;20022;-75
2022/10/21 09:12:28;;;;;;;0.10;0.10;;;15.50;99.90;;;;;;5032054;28;20025;-77
2022/10/21 09:15:15;;;;;;;0.68;0.68;;;15.60;99.90;;;;;;5032034;28;20092;-76
2022/10/21 09:18:07;;;;;;;0.10;0.10;;;15.50;99.90;;;;;;4997949;28;20059;-77
2022/10/21 09:21:03;;;;;;;0.10;0.10;;;15.50;99.90;;;;;;5011456;28;20041;-77
2022/10/21 09:23:52;;;;;;;0.10;0.10;;;15.60;99.90;;;;;;5032021;28;20022;-77
2022/10/21 09:26:43;;;;;;;0.10;0.10;;;15.80;99.90;;;;;;5014394;28;20033;-77
2022/10/21 09:29:29;;;;;;;0.03;0.03;;;15.90;99.90;;;;;;5014512;28;20075;-77
2022/10/21 09:32:11;;;;;;;0.10;0.10;;;16.00;99.90;;;;;;5014453;28;20034;-77
2022/10/21 09:34:49;;;;;;;0.30;0.30;;;16.10;99.90;;;;;;5014241;28;20080;-77
2022/10/21 09:37:23;;;;;;;0.10;0.10;;;16.00;99.90;;;;;;5031827;28;20033;-77
2022/10/21 09:39:58;;;;;;;0.22;0.15;;;16.00;99.90;;;;;;5014249;28;20022;-77
2022/10/21 09:42:24;;;;;;;0.40;0.40;;;16.20;99.90;;;;;;5032000;28;20014;-78
2022/10/21 09:44:49;;;;;;;0.10;0.10;;;16.20;99.90;;;;;;5031819;28;20022;-76
2022/10/21 09:47:22;;;;;;;0.00;0.00;;;16.10;99.90;;;;;;5033212;28;20097;-76
2022/10/21 09:49:51;;;;;;;0.10;0.10;;;16.10;99.90;;;;;;5031834;28;20444;-76
2022/10/21 09:52:20;;;;;;;0.00;0.00;;;16.00;99.90;;;;;;5013540;28;20057;-76
2022/10/21 09:54:47;;;;;;;0.10;0.10;;;16.00;99.90;;;;;;5031534;28;20022;-76
2022/10/21 09:57:17;;;;;;;0.10;0.10;;;16.00;99.90;;;;;;5014046;28;20330;-76
2022/10/21 10:00:01;;;;;;;0.00;0.00;;;16.10;99.90;;;;;;5014194;28;20474;-76
2022/10/21 10:02:38;;;;;;;0.13;0.13;;;16.10;99.90;;;;;;5014076;28;20032;-76
2022/10/21 10:05:37;;;;;;;0.10;0.10;;;16.20;99.90;;;;;;5014326;28;20021;-76
2022/10/21 10:08:27;;;;;;;1.85;1.75;;;16.30;99.90;;;;;;5031763;28;20033;-76
2022/10/21 10:11:08;;;;;;;2.85;0.98;;;16.30;99.90;;;;;;4997499;28;20080;-76
2022/10/21 10:13:40;;;;;;;6.47;2.23;;;16.20;99.90;;;;;;5031699;28;20557;-76
2022/10/21 10:16:30;;;;;;;0.10;0.10;;;16.00;99.90;;;;;;5031353;28;20489;-76
2022/10/21 10:19:26;;;;;;;0.10;0.10;;;16.00;99.90;;;;;;5013909;28;20032;-76
2022/10/21 10:22:14;;;;;;;0.20;0.20;;;16.10;99.90;;;;;;5030722;28;20049;-76
2022/10/21 10:24:42;;;;;;;1.10;0.45;;;16.20;99.90;;;;;;5031535;28;20481;-76
2022/10/21 10:27:22;;;;;;;0.20;0.20;;;16.20;99.90;;;;;;5013361;28;20037;-76
2022/10/21 10:29:52;;;;;;;0.20;0.20;;;16.20;99.90;;;;;;4997201;28;20084;-76
2022/10/21 10:32:18;;;;;;;1.02;0.93;;;16.10;99.90;;;;;;5015400;28;20037;-76
2022/10/21 10:34:50;;;;;;;0.10;0.10;;;16.10;99.90;;;;;;5017414;28;20079;-76
2022/10/21 10:37:20;;;;;;;0.10;0.10;;;16.10;99.90;;;;;;5034925;28;20084;-76
2022/10/21 10:39:49;;;;;;;0.10;0.10;;;16.00;99.90;;;;;;5017522;28;20029;-76
2022/10/21 10:42:18;;;;;;;5.85;1.77;;;16.10;99.90;;;;;;5034760;28;20025;-77
2022/10/21 10:44:44;;;;;;;0.30;0.30;;;16.00;99.90;;;;;;5034990;28;20021;-76
2022/10/21 10:47:20;;;;;;;0.28;0.15;;;15.90;99.90;;;;;;5034512;28;20029;-76
2022/10/21 10:49:47;;;;;;;0.25;0.25;;;15.90;99.90;;;;;;5017053;28;20511;-76
2022/10/21 10:52:12;;;;;;;0.50;0.50;;;15.90;99.90;;;;;;5034799;28;20031;-76
2022/10/21 10:54:40;;;;;;;0.95;0.55;;;15.80;99.90;;;;;;5016913;28;20025;-76
2022/10/21 10:57:13;;;;;;;0.10;0.10;;;15.70;99.90;;;;;;5016645;28;20029;-77
2022/10/21 10:59:54;;;;;;;0.10;0.10;;;15.80;99.90;;;;;;5000308;28;20070;-76
2022/10/21 11:02:44;;;;;;;2.30;2.10;;;15.80;99.90;;;;;;5016653;28;20017;-76
2022/10/21 11:05:23;;;;;;;1.42;1.33;;;15.90;99.90;;;;;;5034262;28;20037;-76
2022/10/21 11:08:07;;;;;;;0.63;0.63;;;15.90;99.90;;;;;;5016611;28;20029;-76
2022/10/21 11:10:43;;;;;;;0.10;0.10;;;15.90;99.90;;;;;;5000168;28;20030;-76
2022/10/21 11:13:13;;;;;;;0.00;0.00;;;16.10;99.90;;;;;;5016548;28;20079;-76
2022/10/21 11:16:04;;;;;;;5.65;1.50;;;16.10;99.90;;;;;;5033935;28;20538;-76
2022/10/21 11:19:00;;;;;;;0.10;0.10;;;16.30;99.90;;;;;;5016285;28;20477;-77
2022/10/21 11:21:46;;;;;;;3.63;1.33;;;16.40;99.90;;;;;;5016520;28;20500;-77
2022/10/21 11:24:20;;;;;;;0.10;0.10;;;16.50;99.90;;;;;;5034083;28;20049;-76
2022/10/21 11:26:52;;;;;;;0.52;0.52;;;16.70;99.90;;;;;;5033959;28;20026;-76
2022/10/21 11:29:33;;;;;;;0.65;0.52;;;16.90;99.90;;;;;;5033978;28;20060;-76
2022/10/21 11:32:05;;;;;;;0.20;0.20;;;16.90;99.90;;;;;;5033897;28;20105;-76
2022/10/21 11:34:38;;;;;;;0.20;0.20;;;17.00;99.90;;;;;;5016300;28;20022;-76
2022/10/21 11:37:29;;;;;;;1.13;0.85;;;17.10;99.90;;;;;;5033777;28;20026;-77
2022/10/21 11:40:14;;;;;;;0.10;0.10;;;17.00;99.90;;;;;;5016125;28;20060;-76
2022/10/21 11:42:43;;;;;;;0.30;0.30;;;17.10;99.90;;;;;;5032968;28;20389;-77
2022/10/21 11:45:42;;;;;;;1.02;0.80;;;17.10;99.90;;;;;;5015317;28;20028;-76
2022/10/21 11:48:16;;;;;;;0.00;0.00;;;17.10;99.90;;;;;;5033701;28;20108;-76
2022/10/21 11:50:45;;;;;;;1.45;0.30;;;17.10;99.90;;;;;;5033572;28;20473;-76
2022/10/21 11:53:18;;;;;;;1.65;0.45;;;17.10;99.90;;;;;;5033678;28;20088;-76
2022/10/21 11:56:11;;;;;;;0.55;0.55;;;17.10;99.90;;;;;;5033368;28;20048;-76
2022/10/21 11:58:56;;;;;;;0.00;0.00;;;17.00;99.90;;;;;;5033295;28;20032;-76
2022/10/21 12:01:45;;;;;;;0.10;0.10;;;16.80;99.90;;;;;;5033247;28;20044;-76
2022/10/21 12:04:36;;;;;;;1.85;0.30;;;16.80;99.90;;;;;;5015432;28;20022;-76
2022/10/21 12:07:21;;;;;;;1.55;1.45;;;16.80;99.90;;;;;;5015583;28;20437;-76
2022/10/21 12:10:00;;;;;;;3.53;1.45;;;16.90;99.90;;;;;;4999040;28;20021;-77
2022/10/21 12:12:33;;;;;;;1.50;1.08;;;16.90;99.90;;;;;;5033438;28;20021;-76
2022/10/21 12:15:01;;;;;;;2.25;2.05;;;16.90;99.90;;;;;;5033235;28;20091;-76
2022/10/21 12:17:31;;;;;;;0.22;0.22;;;17.00;99.90;;;;;;5032835;28;20026;-76
2022/10/21 12:20:05;;;;;;;0.10;0.10;;;17.00;99.90;;;;;;5033054;28;20033;-76
2022/10/21 12:22:32;;;;;;;0.35;0.35;;;17.00;99.90;;;;;;4998958;28;20055;-76
2022/10/21 12:25:08;;;;;;;0.17;0.17;;;17.10;99.90;;;;;;5032808;28;20056;-76
2022/10/21 12:27:37;;;;;;;0.10;0.10;;;17.20;99.90;;;;;;5015352;28;20026;-77
2022/10/21 12:30:07;;;;;;;4.72;1.25;;;17.20;99.90;;;;;;5033036;28;20026;-76
2022/10/21 12:32:41;;;;;;;1.55;1.25;;;17.20;99.90;;;;;;5032832;28;20108;-76
2022/10/21 12:35:26;;;;;;;0.60;0.60;;;17.30;99.90;;;;;;5032686;28;20489;-77
2022/10/21 12:37:52;;;;;;;2.92;1.75;;;17.40;99.90;;;;;;5015101;28;20018;-76
2022/10/21 12:40:38;;;;;;;0.10;0.10;;;17.40;99.90;;;;;;5032670;28;20076;-77
2022/10/21 12:43:22;;;;;;;0.10;0.10;;;17.50;99.90;;;;;;5031722;28;20361;-77
2022/10/21 12:46:10;;;;;;;2.30;0.25;;;17.50;99.90;;;;;;4998330;28;20528;-76
2022/10/21 12:48:38;;;;;;;0.45;0.45;;;17.50;99.90;;;;;;5014777;28;20041;-76
2022/10/21 12:51:15;;;;;;;2.33;1.95;;;17.60;99.90;;;;;;5014875;28;20029;-77
2022/10/21 12:53:47;;;;;;;2.22;0.47;;;17.80;99.90;;;;;;5014806;28;20388;-76
2022/10/21 12:56:27;;;;;;;0.10;0.10;;;17.70;99.90;;;;;;5014213;28;20063;-76
2022/10/21 12:58:58;;;;;;;3.80;0.52;;;17.80;99.90;;;;;;5014909;28;20366;-76
2022/10/21 13:01:45;;;;;;;0.75;0.75;;;17.70;99.90;;;;;;4998244;28;20032;-76
2022/10/21 13:04:33;;;;;;;0.68;0.68;;;17.90;99.90;;;;;;5014343;28;20029;-76
2022/10/21 13:07:04;;;;;;;0.10;0.10;;;18.00;99.90;;;;;;4998392;28;20052;-76
2022/10/21 13:09:39;;;;;;;0.52;0.52;;;18.20;99.90;;;;;;5014620;28;20477;-76